Terminal Aerodrome Forecast
Issued by NWS Mt. Holly, NJ

Home | Current Version | Previous Version | Text Only | Print | Product List | Glossary On
Versions: 1 2 3 4 5 6 7 8 9 10 11 12 13 14 15 16 17 18 19 20 21 22 23 24
000
FTUS41 KPHI 301720
TAFILG
TAF
KILG 301720Z 3018/0118 13007KT P6SM SCT040 BKN200
     FM010600 09006KT P6SM -RA OVC035
     FM010800 11009KT 5SM -RA SCT009 OVC025
     FM011300 12009KT 2SM RA BR OVC009=

USA.gov is the U.S. government's official web portal to all federal, state and local government web resources and services.